Terminal Aerodrome Forecast
Issued by NWS Wakefield, VA

Current Version | Previous Version | Text Only | Print | Product List | Glossary On
Versions: 1 2 3 4 5 6 7 8 9 10 11 12
000
FTUS41 KAKQ 300500
TAFRIC
TAF
KRIC 300533Z 3006/3106 10003KT P6SM SCT030 BKN050
     FM301100 13003KT P6SM BKN025
     FM301400 18008KT P6SM SCT040
     FM310000 16005KT P6SM BKN250=

USA.gov is the U.S. government's official web portal to all federal, state and local government web resources and services.